Time;durP1;ratioP1;P1;durP2;ratioP2;P2;SDS_P1;SDS_P2;PMS_P1;PMS_P2;Temp;Humidity;BMP_temperature;BMP_pressure;BME280_temperature;BME280_humidity;BME280_pressure;Samples;Min_cycle;Max_cycle;Signal;HPM_P1;HPM_P2
2023/10/21 00:01:59;;;;;;;396.60;88.83;;;8.80;89.60;;;;;;5026293;28;20183;-64
2023/10/21 00:04:24;;;;;;;338.13;84.77;;;8.80;89.60;;;;;;5026443;28;20045;-65
2023/10/21 00:06:50;;;;;;;381.37;85.53;;;8.80;89.50;;;;;;5025961;28;20056;-64
2023/10/21 00:09:15;;;;;;;496.10;100.90;;;8.80;89.60;;;;;;5029059;28;20057;-64
2023/10/21 00:11:41;;;;;;;352.30;85.07;;;8.80;89.50;;;;;;5037402;28;20111;-64
2023/10/21 00:14:08;;;;;;;344.40;82.73;;;8.80;89.50;;;;;;5030747;28;20041;-64
2023/10/21 00:16:34;;;;;;;337.43;81.87;;;8.80;89.60;;;;;;5029381;28;20449;-64
2023/10/21 00:19:00;;;;;;;185.90;64.37;;;8.90;89.70;;;;;;5021792;28;20077;-65
2023/10/21 00:21:26;;;;;;;211.20;67.93;;;9.00;89.70;;;;;;5027873;28;20072;-65
2023/10/21 00:23:51;;;;;;;222.87;69.37;;;9.00;89.70;;;;;;5014913;28;20049;-65
2023/10/21 00:26:17;;;;;;;457.27;103.37;;;9.00;89.80;;;;;;5032905;28;20487;-64
2023/10/21 00:28:43;;;;;;;246.17;73.57;;;9.20;89.90;;;;;;5014539;28;20046;-64
2023/10/21 00:31:08;;;;;;;223.33;70.30;;;9.20;89.90;;;;;;5026592;28;20053;-65
2023/10/21 00:33:34;;;;;;;262.33;74.40;;;9.30;89.90;;;;;;5028859;28;20084;-65
2023/10/21 00:36:00;;;;;;;267.87;76.63;;;9.40;90.00;;;;;;5029036;28;20431;-65
2023/10/21 00:38:26;;;;;;;258.77;74.77;;;9.40;90.00;;;;;;5028772;28;20041;-65
2023/10/21 00:40:53;;;;;;;253.40;72.33;;;9.40;90.00;;;;;;5028747;28;20041;-65
2023/10/21 00:43:38;;;;;;;273.33;76.13;;;9.50;90.00;;;;;;5030401;28;20101;-65
2023/10/21 00:46:10;;;;;;;457.33;100.20;;;9.50;90.00;;;;;;5014917;28;20045;-65
2023/10/21 00:48:36;;;;;;;352.98;85.15;;;9.50;90.00;;;;;;5020234;28;20056;-65
2023/10/21 00:51:02;;;;;;;283.50;74.63;;;9.50;90.00;;;;;;5010081;28;20046;-65
2023/10/21 00:53:28;;;;;;;248.13;70.83;;;9.60;90.10;;;;;;5018315;28;20052;-65
2023/10/21 00:55:54;;;;;;;364.23;84.23;;;9.60;90.00;;;;;;5027448;28;20211;-64
2023/10/21 00:58:21;;;;;;;282.80;73.43;;;9.60;90.10;;;;;;5028262;28;20048;-64
2023/10/21 01:00:47;;;;;;;258.47;67.93;;;9.70;90.00;;;;;;5028102;28;20492;-64
2023/10/21 01:03:12;;;;;;;222.43;64.13;;;9.70;90.00;;;;;;5028563;28;20060;-64
2023/10/21 01:05:38;;;;;;;302.60;73.07;;;9.70;90.00;;;;;;5028660;28;20045;-64
2023/10/21 01:08:04;;;;;;;284.23;71.23;;;9.70;90.10;;;;;;5028168;28;20132;-64
2023/10/21 01:10:30;;;;;;;291.77;73.90;;;9.70;90.00;;;;;;5011087;28;20133;-64
2023/10/21 01:12:55;;;;;;;325.93;76.43;;;9.70;90.00;;;;;;5021707;28;20140;-64
2023/10/21 01:15:21;;;;;;;291.80;71.47;;;9.70;90.00;;;;;;5028750;28;20138;-64
2023/10/21 01:17:55;;;;;;;204.57;59.73;;;9.70;90.00;;;;;;5028828;28;20052;-64
2023/10/21 01:20:21;;;;;;;201.60;60.40;;;9.80;90.00;;;;;;5011346;28;20499;-65
2023/10/21 01:22:46;;;;;;;194.43;56.83;;;9.80;90.00;;;;;;5027876;28;20132;-64
2023/10/21 01:25:12;;;;;;;143.53;50.53;;;9.80;90.00;;;;;;5029006;28;20460;-64
2023/10/21 01:27:38;;;;;;;190.13;61.00;;;10.00;90.10;;;;;;5028547;28;20492;-64
2023/10/21 01:30:07;;;;;;;109.80;48.87;;;10.00;90.20;;;;;;5012605;28;20060;-64
2023/10/21 01:32:33;;;;;;;137.33;51.23;;;10.10;90.20;;;;;;5015541;28;20053;-65
2023/10/21 01:34:59;;;;;;;192.27;61.37;;;10.20;90.30;;;;;;5020540;28;20117;-64
2023/10/21 01:37:24;;;;;;;200.80;61.83;;;10.20;90.30;;;;;;5008866;28;20096;-64
2023/10/21 01:39:50;;;;;;;216.27;64.50;;;10.30;90.30;;;;;;5019466;28;20042;-65
2023/10/21 01:42:16;;;;;;;146.27;56.57;;;10.30;90.40;;;;;;5025216;28;20415;-64
2023/10/21 01:44:42;;;;;;;216.97;67.53;;;10.30;90.30;;;;;;5027872;28;20041;-64
2023/10/21 01:47:07;;;;;;;257.10;70.77;;;10.30;90.30;;;;;;5015561;28;20054;-64
2023/10/21 01:49:33;;;;;;;276.23;74.37;;;10.30;90.30;;;;;;5017544;28;20124;-64
2023/10/21 01:51:59;;;;;;;216.93;67.77;;;10.20;90.30;;;;;;5026420;28;20057;-64
2023/10/21 01:54:25;;;;;;;234.17;68.37;;;10.20;90.20;;;;;;5027898;28;20052;-65
2023/10/21 01:56:52;;;;;;;240.17;72.47;;;10.10;90.10;;;;;;5027726;28;20049;-64
2023/10/21 01:59:18;;;;;;;248.47;69.13;;;10.00;90.00;;;;;;5028650;28;20087;-64
2023/10/21 02:01:43;;;;;;;252.43;71.80;;;10.00;90.00;;;;;;5028239;28;20092;-64
2023/10/21 02:04:09;;;;;;;264.50;72.10;;;9.90;89.90;;;;;;5026148;28;20117;-64
2023/10/21 02:06:34;;;;;;;337.17;82.77;;;9.80;89.80;;;;;;5028908;28;20068;-64
2023/10/21 02:09:00;;;;;;;343.03;83.67;;;9.70;89.70;;;;;;5021610;28;20207;-64
2023/10/21 02:11:26;;;;;;;232.47;69.13;;;9.70;89.70;;;;;;5009113;28;20058;-65
2023/10/21 02:13:52;;;;;;;247.00;69.10;;;9.60;89.70;;;;;;5027145;28;20807;-64
2023/10/21 02:16:19;;;;;;;295.30;78.67;;;9.50;89.70;;;;;;5028401;28;20374;-64
2023/10/21 02:18:45;;;;;;;232.27;71.37;;;9.50;89.70;;;;;;5021697;28;20048;-64
2023/10/21 02:21:10;;;;;;;259.83;74.17;;;9.50;89.70;;;;;;5015465;28;20748;-65
2023/10/21 02:23:36;;;;;;;284.07;74.83;;;9.50;89.70;;;;;;5014754;28;20388;-65
2023/10/21 02:26:03;;;;;;;288.03;78.50;;;9.40;89.70;;;;;;5027321;28;20052;-65
2023/10/21 02:28:30;;;;;;;264.60;74.13;;;9.40;89.70;;;;;;5027420;28;20627;-65
2023/10/21 02:30:56;;;;;;;213.50;67.80;;;9.40;89.70;;;;;;5027073;28;20488;-64
2023/10/21 02:33:23;;;;;;;306.47;79.43;;;9.40;89.70;;;;;;5023525;28;20068;-64
2023/10/21 02:35:52;;;;;;;348.20;85.23;;;9.40;89.80;;;;;;5010013;28;20058;-64
2023/10/21 02:38:19;;;;;;;288.93;80.50;;;9.40;89.70;;;;;;5015486;28;20420;-65
2023/10/21 02:40:44;;;;;;;290.47;77.83;;;9.40;89.70;;;;;;5025407;28;20099;-64
2023/10/21 02:43:11;;;;;;;361.97;90.30;;;9.30;89.70;;;;;;5008686;28;20057;-64
2023/10/21 02:45:36;;;;;;;396.87;93.83;;;9.20;89.70;;;;;;5020020;28;20049;-64
2023/10/21 02:48:02;;;;;;;303.87;82.40;;;9.20;89.70;;;;;;5024764;28;20499;-64
2023/10/21 02:50:28;;;;;;;349.97;85.63;;;9.20;89.70;;;;;;5026696;28;20047;-64
2023/10/21 02:52:53;;;;;;;335.63;85.93;;;9.20;89.70;;;;;;5025032;28;20037;-64
2023/10/21 02:55:19;;;;;;;385.57;92.83;;;9.20;89.70;;;;;;5025329;28;20044;-64
2023/10/21 02:57:45;;;;;;;457.20;104.17;;;9.20;89.80;;;;;;5026654;28;20046;-66
2023/10/21 03:00:18;;;;;;;335.30;88.27;;;9.20;89.70;;;;;;5027456;28;20045;-64
2023/10/21 03:02:45;;;;;;;425.77;96.07;;;9.20;89.70;;;;;;5027369;28;20555;-64
2023/10/21 03:05:11;;;;;;;500.97;107.83;;;9.10;89.80;;;;;;5025647;28;20045;-64
2023/10/21 03:07:37;;;;;;;415.60;96.10;;;9.10;89.80;;;;;;5027061;28;20057;-64
2023/10/21 03:10:03;;;;;;;423.00;98.87;;;9.00;89.70;;;;;;5013226;28;20076;-64
2023/10/21 03:12:29;;;;;;;526.73;111.43;;;9.00;89.70;;;;;;5017041;28;20084;-64
2023/10/21 03:15:00;;;;;;;333.30;84.63;;;9.00;89.70;;;;;;5024645;28;20472;-64
2023/10/21 03:17:26;;;;;;;389.60;89.07;;;9.00;89.70;;;;;;5025008;28;20130;-64
2023/10/21 03:19:54;;;;;;;315.23;82.67;;;9.00;89.60;;;;;;5026456;28;20253;-64
2023/10/21 03:22:20;;;;;;;324.77;83.37;;;8.90;89.70;;;;;;5016841;28;20053;-64
2023/10/21 03:24:46;;;;;;;354.17;85.77;;;8.90;89.60;;;;;;5023086;28;20072;-64
2023/10/21 03:27:13;;;;;;;317.63;84.57;;;8.90;89.60;;;;;;5026920;28;20118;-64
2023/10/21 03:29:42;;;;;;;293.77;78.03;;;9.00;89.70;;;;;;5023405;28;20046;-64
2023/10/21 03:32:09;;;;;;;298.37;80.43;;;9.00;89.70;;;;;;5026634;28;20213;-64
2023/10/21 03:34:35;;;;;;;296.17;78.10;;;9.00;89.70;;;;;;5026017;28;20115;-65
2023/10/21 03:37:01;;;;;;;238.07;71.00;;;9.00;89.70;;;;;;5026713;28;20076;-64
2023/10/21 03:39:27;;;;;;;325.40;81.43;;;9.00;89.80;;;;;;5026761;28;20052;-65
2023/10/21 03:41:53;;;;;;;296.33;78.40;;;9.00;89.70;;;;;;5014556;28;20152;-64
2023/10/21 03:44:19;;;;;;;256.00;72.50;;;9.00;89.70;;;;;;5024542;28;20041;-64
2023/10/21 03:46:45;;;;;;;368.17;85.93;;;9.00;89.80;;;;;;5029906;28;20050;-64
2023/10/21 03:49:11;;;;;;;295.80;79.50;;;9.00;89.80;;;;;;5031642;28;20051;-65
2023/10/21 03:51:37;;;;;;;274.03;76.47;;;9.00;89.70;;;;;;5030456;28;20308;-64
2023/10/21 03:54:03;;;;;;;345.53;86.07;;;9.00;89.70;;;;;;5029185;28;20041;-64
2023/10/21 03:56:29;;;;;;;354.07;87.50;;;9.00;89.70;;;;;;5028316;28;20060;-64
2023/10/21 03:58:55;;;;;;;355.23;87.13;;;8.90;89.70;;;;;;5029393;28;20066;-64
2023/10/21 04:01:20;;;;;;;324.50;81.77;;;8.90;89.70;;;;;;5030599;28;20042;-65
2023/10/21 04:03:47;;;;;;;287.30;77.77;;;8.90;89.70;;;;;;5028626;28;20058;-64
2023/10/21 04:06:15;;;;;;;197.67;65.23;;;8.90;89.70;;;;;;5030442;28;20041;-64
2023/10/21 04:08:41;;;;;;;274.37;75.50;;;8.90;89.70;;;;;;5027663;28;20069;-64
2023/10/21 04:11:08;;;;;;;255.60;76.37;;;8.90;89.70;;;;;;5020915;28;20198;-64
2023/10/21 04:13:34;;;;;;;279.77;76.20;;;8.90;89.70;;;;;;5029116;28;20522;-64
2023/10/21 04:16:00;;;;;;;280.80;79.63;;;8.90;89.70;;;;;;5030074;28;20048;-64
2023/10/21 04:18:26;;;;;;;248.57;76.63;;;8.90;89.70;;;;;;5020341;28;20037;-65
2023/10/21 04:20:52;;;;;;;288.23;81.53;;;8.90;89.70;;;;;;5029277;28;20064;-65
2023/10/21 04:23:18;;;;;;;248.43;74.87;;;8.90;89.80;;;;;;5017562;28;20481;-65
2023/10/21 04:25:43;;;;;;;270.07;80.40;;;8.90;89.80;;;;;;5029864;28;20045;-64
2023/10/21 04:28:10;;;;;;;312.60;85.53;;;8.90;89.70;;;;;;5030577;28;20046;-65
2023/10/21 04:30:36;;;;;;;259.57;77.60;;;8.90;89.70;;;;;;5030766;28;20451;-64
2023/10/21 04:33:02;;;;;;;376.90;93.37;;;8.90;89.70;;;;;;5028811;28;20091;-65
2023/10/21 04:35:28;;;;;;;289.20;82.00;;;8.90;89.70;;;;;;5028593;28;20668;-65
2023/10/21 04:37:55;;;;;;;337.93;88.63;;;8.80;89.70;;;;;;5029462;28;20055;-64
2023/10/21 04:40:20;;;;;;;341.40;87.80;;;8.80;89.70;;;;;;5018689;28;20041;-64
2023/10/21 04:42:46;;;;;;;301.23;82.23;;;8.80;89.70;;;;;;5029902;28;20103;-64
2023/10/21 04:45:12;;;;;;;315.30;83.83;;;8.80;89.70;;;;;;5029443;28;20048;-65
2023/10/21 04:47:38;;;;;;;326.53;84.37;;;8.80;89.70;;;;;;5012245;28;20088;-64
2023/10/21 04:50:05;;;;;;;275.40;80.23;;;8.70;89.70;;;;;;5020572;28;20056;-65
2023/10/21 04:52:31;;;;;;;273.27;79.33;;;8.70;89.60;;;;;;5027374;28;20079;-65
2023/10/21 04:54:57;;;;;;;373.57;90.97;;;8.60;89.60;;;;;;5026507;28;20064;-65
2023/10/21 04:57:22;;;;;;;262.67;76.03;;;8.60;89.70;;;;;;5024776;28;20498;-65
2023/10/21 04:59:48;;;;;;;262.80;78.13;;;8.60;89.70;;;;;;5025893;28;20560;-65
2023/10/21 05:02:14;;;;;;;340.80;85.50;;;8.60;89.70;;;;;;5024673;28;20037;-65
2023/10/21 05:04:40;;;;;;;339.43;86.20;;;8.60;89.60;;;;;;5025669;28;20049;-64
2023/10/21 05:07:06;;;;;;;219.37;70.30;;;8.60;89.70;;;;;;5026823;28;20072;-64
2023/10/21 05:09:32;;;;;;;257.57;75.47;;;8.60;89.70;;;;;;5025893;28;20547;-65
2023/10/21 05:12:02;;;;;;;246.00;75.23;;;8.60;89.60;;;;;;5024635;28;20061;-64
2023/10/21 05:14:27;;;;;;;284.63;79.83;;;8.60;89.70;;;;;;5026792;28;20052;-64
2023/10/21 05:16:53;;;;;;;374.33;89.03;;;8.60;89.60;;;;;;5025326;28;20049;-65
2023/10/21 05:19:19;;;;;;;295.97;80.33;;;8.60;89.70;;;;;;5041424;28;20160;-64
2023/10/21 05:21:44;;;;;;;316.47;83.13;;;8.60;89.60;;;;;;5025617;28;20251;-64
2023/10/21 05:24:10;;;;;;;321.50;84.33;;;8.50;89.60;;;;;;5026000;28;20068;-64
2023/10/21 05:26:36;;;;;;;381.93;90.67;;;8.50;89.60;;;;;;5021209;28;20054;-65
2023/10/21 05:29:02;;;;;;;342.47;86.83;;;8.50;89.50;;;;;;5021142;28;20199;-64
2023/10/21 05:31:28;;;;;;;300.73;79.33;;;8.50;89.60;;;;;;5040754;28;20045;-64
2023/10/21 05:33:57;;;;;;;376.37;88.93;;;8.40;89.60;;;;;;5026377;28;20359;-64
2023/10/21 05:36:24;;;;;;;366.10;87.73;;;8.40;89.60;;;;;;5025507;28;20100;-64
2023/10/21 05:38:49;;;;;;;272.40;75.40;;;8.40;89.60;;;;;;5025459;28;20431;-64
2023/10/21 05:41:15;;;;;;;275.67;72.57;;;8.40;89.60;;;;;;5025502;28;20049;-65
2023/10/21 05:43:41;;;;;;;303.53;76.43;;;8.40;89.60;;;;;;5025511;28;20462;-64
2023/10/21 05:46:06;;;;;;;282.33;72.57;;;8.40;89.60;;;;;;5019958;28;20061;-64
2023/10/21 05:48:32;;;;;;;260.83;70.63;;;8.30;89.60;;;;;;5026797;28;20129;-65
2023/10/21 05:51:01;;;;;;;289.37;75.77;;;8.30;89.60;;;;;;5028690;28;20053;-65
2023/10/21 05:53:27;;;;;;;241.77;66.57;;;8.30;89.60;;;;;;5022227;28;20049;-65
2023/10/21 05:55:57;;;;;;;327.83;77.63;;;8.30;89.60;;;;;;5014911;28;20103;-65
2023/10/21 05:58:23;;;;;;;238.13;67.23;;;8.30;89.60;;;;;;5010102;28;20057;-64
2023/10/21 06:00:49;;;;;;;169.37;58.60;;;8.30;89.60;;;;;;5018535;28;20132;-65
2023/10/21 06:03:15;;;;;;;152.60;53.50;;;8.40;89.70;;;;;;5021441;28;20124;-65
2023/10/21 06:05:44;;;;;;;235.93;66.67;;;8.40;89.60;;;;;;5023206;28;20056;-64
2023/10/21 06:08:10;;;;;;;257.07;68.87;;;8.40;89.70;;;;;;5025516;28;20057;-65
2023/10/21 06:10:36;;;;;;;233.57;66.10;;;8.50;89.70;;;;;;5024067;28;20103;-65
2023/10/21 06:13:02;;;;;;;188.97;57.10;;;8.50;89.70;;;;;;5026353;28;20049;-65
2023/10/21 06:15:28;;;;;;;198.13;59.77;;;8.50;89.70;;;;;;5025296;28;20056;-64
2023/10/21 06:17:54;;;;;;;203.17;60.23;;;8.50;89.80;;;;;;5014067;28;20108;-65
2023/10/21 06:20:19;;;;;;;177.37;58.47;;;8.60;89.80;;;;;;5014175;28;20049;-65
2023/10/21 06:22:45;;;;;;;182.60;57.20;;;8.60;89.80;;;;;;5014079;28;20530;-65
2023/10/21 06:25:11;;;;;;;198.03;58.40;;;8.60;89.80;;;;;;5009614;28;20116;-65
2023/10/21 06:27:37;;;;;;;178.90;55.97;;;8.60;89.80;;;;;;5019113;28;20538;-65
2023/10/21 06:30:03;;;;;;;187.03;57.23;;;8.60;89.90;;;;;;5021234;28;20545;-65
2023/10/21 06:32:30;;;;;;;180.40;56.73;;;8.70;89.80;;;;;;5018546;28;20128;-65
2023/10/21 06:34:56;;;;;;;138.90;48.63;;;8.70;89.90;;;;;;5020980;28;20038;-65
2023/10/21 06:37:23;;;;;;;196.73;58.40;;;8.80;89.90;;;;;;5022239;28;20053;-65
2023/10/21 06:39:49;;;;;;;161.40;52.73;;;8.80;89.80;;;;;;5023475;28;20180;-64
2023/10/21 06:42:15;;;;;;;155.67;52.80;;;8.80;89.90;;;;;;5010504;28;20052;-65
2023/10/21 06:44:41;;;;;;;106.43;44.93;;;8.80;89.90;;;;;;5022550;28;20042;-65
2023/10/21 06:47:07;;;;;;;118.63;47.97;;;8.90;90.00;;;;;;5023940;28;20799;-65
2023/10/21 06:49:32;;;;;;;114.87;44.77;;;9.00;90.00;;;;;;5024706;28;20077;-65
2023/10/21 06:51:58;;;;;;;154.90;52.60;;;9.00;90.00;;;;;;5022966;28;20130;-64
2023/10/21 06:54:24;;;;;;;146.60;51.87;;;9.00;90.10;;;;;;5015416;28;20054;-65
2023/10/21 06:56:50;;;;;;;130.00;48.33;;;9.10;90.10;;;;;;5033468;28;20514;-65
2023/10/21 06:59:15;;;;;;;138.67;50.73;;;9.20;90.10;;;;;;5018935;28;20515;-67
2023/10/21 07:01:41;;;;;;;155.87;52.63;;;9.20;90.10;;;;;;5018560;28;20053;-65
2023/10/21 07:04:10;;;;;;;147.53;50.23;;;9.20;90.10;;;;;;5023359;28;20054;-64
2023/10/21 07:06:36;;;;;;;142.37;48.90;;;9.20;90.10;;;;;;5024305;28;20471;-65
2023/10/21 07:09:02;;;;;;;167.27;53.03;;;9.20;90.10;;;;;;5015149;28;20111;-64
2023/10/21 07:11:28;;;;;;;177.90;54.57;;;9.30;90.20;;;;;;5022730;28;20103;-64
2023/10/21 07:13:54;;;;;;;163.53;51.87;;;9.30;90.20;;;;;;5024793;28;20509;-64
2023/10/21 07:16:20;;;;;;;150.10;50.77;;;9.40;90.20;;;;;;5023284;28;20061;-65
2023/10/21 07:18:45;;;;;;;144.50;49.13;;;9.40;90.10;;;;;;5019058;28;20129;-64
2023/10/21 07:21:11;;;;;;;134.17;47.67;;;9.40;90.20;;;;;;5028009;28;20491;-64
2023/10/21 07:23:37;;;;;;;95.90;40.53;;;9.40;90.20;;;;;;5025867;28;20048;-65
2023/10/21 07:26:03;;;;;;;84.63;39.60;;;9.50;90.20;;;;;;5024478;28;20488;-64
2023/10/21 07:28:29;;;;;;;90.53;40.90;;;9.60;90.30;;;;;;5028702;28;20054;-66
2023/10/21 07:30:55;;;;;;;102.10;42.53;;;9.60;90.30;;;;;;5022989;28;20033;-64
2023/10/21 07:33:21;;;;;;;83.20;39.90;;;9.70;90.40;;;;;;5027975;28;20072;-65
2023/10/21 07:35:51;;;;;;;121.97;45.87;;;9.80;90.40;;;;;;5027441;28;20045;-65
2023/10/21 07:38:17;;;;;;;70.60;37.03;;;9.80;90.40;;;;;;5028174;28;20049;-64
2023/10/21 07:40:43;;;;;;;118.20;45.63;;;9.90;90.50;;;;;;5026417;28;20049;-65
2023/10/21 07:43:09;;;;;;;140.93;50.20;;;10.00;90.40;;;;;;5021020;28;20095;-64
2023/10/21 07:45:35;;;;;;;111.57;44.30;;;10.00;90.50;;;;;;5027945;28;20041;-64
2023/10/21 07:48:02;;;;;;;80.30;38.60;;;10.00;90.40;;;;;;5027897;28;20057;-65
2023/10/21 07:50:28;;;;;;;104.23;42.97;;;10.10;90.50;;;;;;5028572;28;20051;-64
2023/10/21 07:52:54;;;;;;;81.27;39.37;;;10.10;90.50;;;;;;5028016;28;20055;-64
2023/10/21 07:55:20;;;;;;;114.53;44.93;;;10.20;90.50;;;;;;5026516;28;20080;-65
2023/10/21 07:57:46;;;;;;;79.13;38.90;;;10.30;90.60;;;;;;5023661;28;20556;-65
2023/10/21 08:00:13;;;;;;;128.20;46.97;;;10.30;90.60;;;;;;5022453;28;20049;-65
2023/10/21 08:02:40;;;;;;;121.53;45.53;;;10.40;90.60;;;;;;5024055;28;20427;-65
2023/10/21 08:05:09;;;;;;;114.70;45.87;;;10.40;90.50;;;;;;5024549;28;20129;-65
2023/10/21 08:07:35;;;;;;;78.37;38.83;;;10.40;90.60;;;;;;5024219;28;20566;-65
2023/10/21 08:10:05;;;;;;;164.03;53.07;;;10.50;90.70;;;;;;5040753;28;20060;-66
2023/10/21 08:12:34;;;;;;;63.63;34.80;;;10.60;90.70;;;;;;5027140;28;20538;-65
2023/10/21 08:15:07;;;;;;;52.42;32.22;;;10.70;90.70;;;;;;5027852;28;20588;-64
2023/10/21 08:17:33;;;;;;;61.17;34.85;;;10.70;90.80;;;;;;5024424;28;20081;-64
2023/10/21 08:19:59;;;;;;;57.63;33.10;;;10.80;90.90;;;;;;5027334;28;20072;-65
2023/10/21 08:22:26;;;;;;;65.77;34.40;;;10.90;90.90;;;;;;5026185;28;20613;-65
2023/10/21 08:24:52;;;;;;;68.95;36.65;;;10.90;90.80;;;;;;5027100;28;20056;-65
2023/10/21 08:27:18;;;;;;;57.88;32.45;;;11.00;90.90;;;;;;5027782;28;20132;-65
2023/10/21 08:29:44;;;;;;;66.80;37.83;;;11.10;90.90;;;;;;4980380;28;20415;-65
2023/10/21 08:32:09;;;;;;;56.22;31.80;;;11.10;90.90;;;;;;5024275;28;20499;-65
2023/10/21 08:34:36;;;;;;;61.22;34.67;;;11.10;90.90;;;;;;5024696;28;20045;-65
2023/10/21 08:37:07;;;;;;;56.40;32.47;;;11.20;90.90;;;;;;5026653;28;20128;-65
2023/10/21 08:39:34;;;;;;;59.17;35.80;;;11.30;90.90;;;;;;5007679;28;20053;-65
2023/10/21 08:42:00;;;;;;;51.75;31.15;;;11.30;90.90;;;;;;5021354;28;20045;-65
2023/10/21 08:44:26;;;;;;;57.00;32.10;;;11.40;90.90;;;;;;5024679;28;20049;-65
2023/10/21 08:46:56;;;;;;;58.72;35.17;;;11.40;90.90;;;;;;5026447;28;20053;-65
2023/10/21 08:49:23;;;;;;;80.53;40.65;;;11.40;91.00;;;;;;5024867;28;20585;-65
2023/10/21 08:51:51;;;;;;;90.07;41.13;;;11.50;90.90;;;;;;4110908;28;10000987;-65
2023/10/21 08:54:18;;;;;;;64.15;35.50;;;11.50;91.00;;;;;;5021835;28;20057;-65
2023/10/21 08:56:44;;;;;;;65.38;35.15;;;11.50;90.90;;;;;;5015535;28;20048;-65
2023/10/21 08:59:12;;;;;;;60.53;34.05;;;11.50;90.90;;;;;;5026851;28;20038;-65
2023/10/21 09:01:39;;;;;;;52.85;32.45;;;11.60;91.00;;;;;;5022383;28;20095;-65
2023/10/21 09:04:05;;;;;;;54.45;31.67;;;11.70;91.00;;;;;;5020168;28;20056;-65
2023/10/21 09:06:31;;;;;;;56.10;33.15;;;11.70;91.00;;;;;;5019349;28;20848;-65
2023/10/21 09:08:56;;;;;;;45.55;30.08;;;11.90;91.00;;;;;;5021759;28;20061;-65
2023/10/21 09:11:29;;;;;;;43.55;29.10;;;11.90;91.10;;;;;;5024768;28;20045;-65
2023/10/21 09:14:01;;;;;;;39.95;26.40;;;11.90;91.10;;;;;;5023206;28;20103;-65
2023/10/21 09:16:29;;;;;;;44.53;29.45;;;12.00;91.10;;;;;;5023346;28;20041;-65
2023/10/21 09:19:03;;;;;;;40.40;25.98;;;12.10;91.10;;;;;;5023856;28;20042;-65
2023/10/21 09:21:49;;;;;;;36.92;24.83;;;12.10;91.10;;;;;;5022624;28;20120;-65
2023/10/21 09:24:22;;;;;;;36.10;23.92;;;12.20;91.20;;;;;;5021596;28;20106;-65
2023/10/21 09:26:48;;;;;;;34.67;23.45;;;12.30;91.10;;;;;;5023123;28;20049;-65
2023/10/21 09:29:18;;;;;;;32.97;22.35;;;12.40;91.20;;;;;;5024601;28;20075;-65
2023/10/21 09:31:52;;;;;;;34.17;21.30;;;12.50;91.20;;;;;;5024713;28;20127;-65
2023/10/21 09:34:24;;;;;;;34.58;21.40;;;12.50;91.20;;;;;;5021822;28;20397;-65
2023/10/21 09:36:52;;;;;;;29.10;20.00;;;12.50;91.20;;;;;;5023752;28;20099;-66
2023/10/21 09:39:18;;;;;;;27.50;18.67;;;12.50;91.00;;;;;;5024653;28;20537;-65
2023/10/21 09:41:45;;;;;;;28.50;19.17;;;12.50;91.10;;;;;;5024124;28;20039;-65
2023/10/21 09:44:13;;;;;;;26.52;18.17;;;12.70;91.10;;;;;;5025097;28;20128;-65
2023/10/21 09:46:40;;;;;;;20.73;15.30;;;12.80;91.10;;;;;;5025181;28;20496;-65
2023/10/21 09:49:06;;;;;;;24.75;15.30;;;12.90;91.10;;;;;;5025539;28;20041;-65
2023/10/21 09:51:36;;;;;;;23.13;14.32;;;13.00;91.00;;;;;;5025901;28;20562;-65
2023/10/21 09:54:10;;;;;;;22.60;13.75;;;13.00;90.90;;;;;;5024025;28;20053;-66
2023/10/21 09:56:37;;;;;;;23.00;11.85;;;13.00;90.70;;;;;;5025603;28;20053;-65
2023/10/21 09:59:05;;;;;;;17.92;12.10;;;13.00;90.40;;;;;;5025048;28;20084;-65
2023/10/21 10:01:33;;;;;;;22.30;12.70;;;13.00;90.10;;;;;;5022966;28;20055;-65
2023/10/21 10:04:01;;;;;;;17.27;12.10;;;13.00;90.00;;;;;;5024169;28;20050;-65
2023/10/21 10:06:28;;;;;;;17.50;10.05;;;13.10;89.80;;;;;;5022858;28;20443;-65
2023/10/21 10:08:55;;;;;;;15.20;9.77;;;13.10;89.60;;;;;;5022949;28;20365;-65
2023/10/21 10:11:24;;;;;;;11.85;8.90;;;13.10;89.40;;;;;;5026212;28;20050;-65
2023/10/21 10:13:50;;;;;;;14.55;9.27;;;13.10;89.30;;;;;;5021029;28;20057;-65
2023/10/21 10:16:22;;;;;;;14.07;8.23;;;13.10;89.20;;;;;;5022252;28;20096;-65
2023/10/21 10:18:55;;;;;;;11.63;7.72;;;13.10;89.00;;;;;;5021158;28;20050;-65
2023/10/21 10:21:21;;;;;;;11.85;7.10;;;13.10;88.70;;;;;;5021997;28;20050;-65
2023/10/21 10:23:58;;;;;;;10.05;6.70;;;13.10;88.40;;;;;;5024231;28;20440;-65
2023/10/21 10:26:42;;;;;;;8.10;6.40;;;13.20;88.40;;;;;;5021963;28;20052;-65
2023/10/21 10:29:25;;;;;;;11.18;6.07;;;13.30;88.30;;;;;;5024284;28;20044;-65
2023/10/21 10:32:17;;;;;;;9.93;5.55;;;13.30;88.10;;;;;;5024830;28;20079;-65
2023/10/21 10:34:53;;;;;;;10.48;6.18;;;13.30;87.80;;;;;;5021895;28;20056;-65
2023/10/21 10:37:34;;;;;;;13.35;6.80;;;13.30;87.80;;;;;;5023807;28;20070;-65
2023/10/21 10:40:05;;;;;;;;;;;13.20;88.00;;;;;;5026664;28;20439;-65
2023/10/21 10:42:34;;;;;;;14.15;6.32;;;13.10;88.00;;;;;;5028065;28;19927;-65
2023/10/21 10:45:00;;;;;;;9.30;6.30;;;13.10;88.20;;;;;;5025985;28;20072;-65
2023/10/21 10:47:28;;;;;;;11.65;7.72;;;13.10;88.50;;;;;;5022031;28;20124;-66
2023/10/21 10:49:56;;;;;;;11.07;6.30;;;13.10;88.70;;;;;;5022832;28;20124;-66
2023/10/21 10:52:31;;;;;;;10.05;6.68;;;13.10;88.80;;;;;;5022954;28;20049;-66
2023/10/21 10:54:58;;;;;;;9.15;6.68;;;13.10;88.80;;;;;;5020553;28;20353;-66
2023/10/21 10:57:24;;;;;;;9.82;6.25;;;13.20;88.90;;;;;;5021103;28;20143;-66
2023/10/21 10:59:50;;;;;;;9.32;5.95;;;13.20;88.90;;;;;;5026416;28;20045;-66
2023/10/21 11:02:17;;;;;;;9.18;6.30;;;13.10;88.90;;;;;;5020809;28;20049;-65
2023/10/21 11:04:47;;;;;;;10.32;4.97;;;13.10;88.90;;;;;;5018730;28;20075;-65
2023/10/21 11:07:12;;;;;;;9.30;5.80;;;13.10;88.80;;;;;;5027041;28;20049;-66
2023/10/21 11:09:38;;;;;;;7.38;4.93;;;13.10;88.80;;;;;;5026300;28;20064;-66
2023/10/21 11:12:05;;;;;;;8.23;4.85;;;13.10;88.90;;;;;;5025356;28;20150;-66
2023/10/21 11:14:31;;;;;;;7.25;4.88;;;13.10;89.00;;;;;;5026004;28;20528;-66
2023/10/21 11:16:57;;;;;;;5.57;3.97;;;13.10;89.10;;;;;;5026837;28;20050;-66
2023/10/21 11:19:25;;;;;;;5.43;2.90;;;13.10;88.90;;;;;;5026633;28;20057;-65
2023/10/21 11:21:51;;;;;;;5.03;3.30;;;13.00;88.70;;;;;;5026341;28;20080;-65
2023/10/21 11:24:19;;;;;;;5.13;3.80;;;13.00;88.60;;;;;;5024082;28;20049;-65
2023/10/21 11:26:45;;;;;;;7.03;5.25;;;13.00;88.50;;;;;;5026124;28;20542;-65
2023/10/21 11:29:11;;;;;;;8.60;4.30;;;13.00;88.60;;;;;;5007407;28;20045;-66
2023/10/21 11:31:37;;;;;;;5.40;3.88;;;13.00;88.50;;;;;;5026537;28;20049;-65
2023/10/21 11:34:13;;;;;;;7.38;3.58;;;13.00;88.00;;;;;;5025907;28;20057;-66
2023/10/21 11:36:44;;;;;;;5.88;3.15;;;13.00;88.00;;;;;;5025354;28;20459;-65
2023/10/21 11:39:13;;;;;;;5.95;2.30;;;13.00;87.90;;;;;;5006788;28;20457;-66
2023/10/21 11:41:49;;;;;;;4.60;2.25;;;13.00;87.80;;;;;;5025081;28;20045;-65
2023/10/21 11:44:17;;;;;;;4.47;2.05;;;13.10;87.80;;;;;;5025928;28;20049;-66
2023/10/21 11:46:43;;;;;;;5.78;1.77;;;13.20;87.20;;;;;;5022845;28;20061;-65
2023/10/21 11:49:15;;;;;;;3.70;1.48;;;13.20;86.00;;;;;;5026549;28;20091;-65
2023/10/21 11:51:42;;;;;;;4.68;1.35;;;13.10;85.80;;;;;;5005551;28;20052;-65
2023/10/21 11:54:09;;;;;;;4.55;1.60;;;13.10;85.30;;;;;;5026638;28;20080;-65
2023/10/21 12:36:39;;;;;;;2.75;1.20;;;13.00;82.00;;;;;;5022928;28;20746;-65
2023/10/21 12:41:45;;;;;;;2.55;1.20;;;13.10;81.80;;;;;;5028519;28;20760;-65
2023/10/21 12:44:14;;;;;;;2.92;1.20;;;13.20;83.00;;;;;;5030553;28;20595;-65
2023/10/21 12:46:41;;;;;;;3.88;1.23;;;13.30;82.70;;;;;;5020022;28;20053;-66
2023/10/21 12:49:13;;;;;;;3.10;1.30;;;13.30;82.90;;;;;;5029345;28;20159;-65
2023/10/21 12:51:40;;;;;;;4.05;1.20;;;13.30;82.10;;;;;;5034201;28;20055;-65
2023/10/21 12:54:09;;;;;;;2.92;1.10;;;13.30;82.10;;;;;;5027545;28;20499;-65
2023/10/21 12:56:36;;;;;;;3.90;1.42;;;13.30;81.20;;;;;;5025181;28;20400;-65
2023/10/21 12:59:01;;;;;;;5.03;1.33;;;13.30;80.50;;;;;;5029313;28;20414;-65
2023/10/21 13:01:28;;;;;;;3.97;1.23;;;13.30;81.00;;;;;;5029547;28;20045;-65
2023/10/21 13:03:56;;;;;;;2.95;1.20;;;13.20;81.30;;;;;;5030290;28;20049;-66
2023/10/21 13:06:22;;;;;;;2.55;1.10;;;13.10;81.20;;;;;;5026401;28;20050;-65
2023/10/21 13:08:50;;;;;;;3.20;1.00;;;13.20;81.50;;;;;;5027313;28;20041;-65
2023/10/21 13:11:17;;;;;;;2.85;0.90;;;13.30;81.10;;;;;;5029114;28;20052;-65
2023/10/21 13:13:46;;;;;;;4.82;1.00;;;13.30;81.20;;;;;;5028751;28;20404;-65